sensor_id;sensor_type;location;lat;lon;timestamp;P1;durP1;ratioP1;P2;durP2;ratioP2
47539;SDS011;33280;52.152;21.052;2023-05-07T11:03:04;2.27;;;1.73;;
47539;SDS011;33280;52.152;21.052;2023-05-07T11:05:44;2.80;;;2.00;;
47539;SDS011;33280;52.152;21.052;2023-05-07T11:08:14;2.57;;;1.93;;
47539;SDS011;33280;52.152;21.052;2023-05-07T11:10:52;3.70;;;1.97;;
47539;SDS011;33280;52.152;21.052;2023-05-07T11:16:21;4.30;;;1.90;;
47539;SDS011;33280;52.152;21.052;2023-05-07T11:18:50;3.37;;;1.80;;
47539;SDS011;33280;52.152;21.052;2023-05-07T11:24:03;5.03;;;1.90;;
47539;SDS011;33280;52.152;21.052;2023-05-07T11:26:46;3.67;;;2.13;;
47539;SDS011;33280;52.152;21.052;2023-05-07T11:29:20;3.33;;;1.93;;
47539;SDS011;33280;52.152;21.052;2023-05-07T11:31:52;2.57;;;1.73;;
47539;SDS011;33280;52.152;21.052;2023-05-07T11:34:21;3.00;;;1.90;;
47539;SDS011;33280;52.152;21.052;2023-05-07T11:36:49;3.10;;;1.90;;
47539;SDS011;33280;52.152;21.052;2023-05-07T11:39:26;2.97;;;1.80;;
47539;SDS011;33280;52.152;21.052;2023-05-07T11:42:02;2.90;;;2.13;;
47539;SDS011;33280;52.152;21.052;2023-05-07T11:44:42;3.60;;;2.00;;
47539;SDS011;33280;52.152;21.052;2023-05-07T11:47:19;4.13;;;1.80;;
47539;SDS011;33280;52.152;21.052;2023-05-07T11:49:48;2.47;;;1.60;;
47539;SDS011;33280;52.152;21.052;2023-05-07T11:52:16;2.40;;;1.70;;
47539;SDS011;33280;52.152;21.052;2023-05-07T11:54:53;2.20;;;1.63;;
47539;SDS011;33280;52.152;21.052;2023-05-07T11:57:25;3.87;;;2.07;;
47539;SDS011;33280;52.152;21.052;2023-05-07T11:59:58;2.60;;;1.70;;
47539;SDS011;33280;52.152;21.052;2023-05-07T12:02:28;2.60;;;1.63;;
47539;SDS011;33280;52.152;21.052;2023-05-07T12:04:55;2.00;;;1.60;;
47539;SDS011;33280;52.152;21.052;2023-05-07T12:07:22;2.73;;;1.40;;
47539;SDS011;33280;52.152;21.052;2023-05-07T12:09:50;2.10;;;1.60;;
47539;SDS011;33280;52.152;21.052;2023-05-07T12:12:18;2.50;;;1.73;;
47539;SDS011;33280;52.152;21.052;2023-05-07T12:14:45;3.27;;;1.83;;
47539;SDS011;33280;52.152;21.052;2023-05-07T12:17:13;3.37;;;1.80;;
47539;SDS011;33280;52.152;21.052;2023-05-07T12:19:42;2.53;;;1.60;;
47539;SDS011;33280;52.152;21.052;2023-05-07T12:22:11;2.63;;;1.70;;
47539;SDS011;33280;52.152;21.052;2023-05-07T12:24:49;4.03;;;1.60;;
47539;SDS011;33280;52.152;21.052;2023-05-07T12:27:23;2.13;;;1.60;;
47539;SDS011;33280;52.152;21.052;2023-05-07T12:29:50;2.23;;;1.53;;
47539;SDS011;33280;52.152;21.052;2023-05-07T12:32:18;5.70;;;1.70;;
47539;SDS011;33280;52.152;21.052;2023-05-07T12:34:49;3.13;;;1.60;;
47539;SDS011;33280;52.152;21.052;2023-05-07T12:37:22;1.83;;;1.60;;
47539;SDS011;33280;52.152;21.052;2023-05-07T12:40:06;3.43;;;1.63;;
47539;SDS011;33280;52.152;21.052;2023-05-07T12:42:38;3.23;;;1.60;;
47539;SDS011;33280;52.152;21.052;2023-05-07T12:45:09;2.43;;;1.53;;
47539;SDS011;33280;52.152;21.052;2023-05-07T12:47:45;2.97;;;1.80;;
47539;SDS011;33280;52.152;21.052;2023-05-07T12:50:14;5.10;;;1.40;;
47539;SDS011;33280;52.152;21.052;2023-05-07T12:52:59;3.27;;;1.50;;
47539;SDS011;33280;52.152;21.052;2023-05-07T12:55:32;2.00;;;1.47;;
47539;SDS011;33280;52.152;21.052;2023-05-07T12:58:06;4.13;;;1.37;;
47539;SDS011;33280;52.152;21.052;2023-05-07T13:00:34;2.87;;;1.60;;
47539;SDS011;33280;52.152;21.052;2023-05-07T13:03:05;3.30;;;1.90;;
47539;SDS011;33280;52.152;21.052;2023-05-07T13:05:32;2.03;;;1.40;;
47539;SDS011;33280;52.152;21.052;2023-05-07T13:07:59;2.43;;;1.57;;
47539;SDS011;33280;52.152;21.052;2023-05-07T13:10:26;2.20;;;1.50;;
47539;SDS011;33280;52.152;21.052;2023-05-07T13:12:53;1.60;;;1.30;;
47539;SDS011;33280;52.152;21.052;2023-05-07T13:15:20;2.23;;;1.50;;
47539;SDS011;33280;52.152;21.052;2023-05-07T13:17:48;1.50;;;1.23;;
47539;SDS011;33280;52.152;21.052;2023-05-07T13:20:16;2.60;;;1.40;;
47539;SDS011;33280;52.152;21.052;2023-05-07T13:22:43;2.40;;;1.67;;
47539;SDS011;33280;52.152;21.052;2023-05-07T13:25:10;2.23;;;1.50;;
47539;SDS011;33280;52.152;21.052;2023-05-07T13:27:38;2.07;;;1.40;;
47539;SDS011;33280;52.152;21.052;2023-05-07T13:30:05;1.60;;;1.43;;
47539;SDS011;33280;52.152;21.052;2023-05-07T13:32:33;3.37;;;1.60;;
47539;SDS011;33280;52.152;21.052;2023-05-07T13:34:59;2.33;;;1.60;;
47539;SDS011;33280;52.152;21.052;2023-05-07T13:37:27;4.67;;;1.57;;
47539;SDS011;33280;52.152;21.052;2023-05-07T13:39:54;3.10;;;1.60;;
47539;SDS011;33280;52.152;21.052;2023-05-07T13:42:21;2.33;;;1.60;;
47539;SDS011;33280;52.152;21.052;2023-05-07T13:44:48;2.97;;;1.40;;
47539;SDS011;33280;52.152;21.052;2023-05-07T13:47:15;3.67;;;1.50;;
47539;SDS011;33280;52.152;21.052;2023-05-07T13:49:42;2.60;;;1.50;;
47539;SDS011;33280;52.152;21.052;2023-05-07T13:52:09;1.40;;;1.30;;
47539;SDS011;33280;52.152;21.052;2023-05-07T13:54:37;1.50;;;1.33;;
47539;SDS011;33280;52.152;21.052;2023-05-07T13:57:04;2.00;;;1.27;;
47539;SDS011;33280;52.152;21.052;2023-05-07T13:59:31;2.27;;;1.40;;
47539;SDS011;33280;52.152;21.052;2023-05-07T14:01:58;2.13;;;1.30;;
47539;SDS011;33280;52.152;21.052;2023-05-07T14:04:25;4.00;;;1.33;;
47539;SDS011;33280;52.152;21.052;2023-05-07T14:06:52;2.93;;;1.40;;
47539;SDS011;33280;52.152;21.052;2023-05-07T14:09:19;1.80;;;1.20;;
47539;SDS011;33280;52.152;21.052;2023-05-07T14:11:45;2.03;;;1.23;;
47539;SDS011;33280;52.152;21.052;2023-05-07T14:14:13;2.63;;;1.30;;
47539;SDS011;33280;52.152;21.052;2023-05-07T14:16:41;3.13;;;1.40;;
47539;SDS011;33280;52.152;21.052;2023-05-07T14:19:08;3.20;;;1.30;;
47539;SDS011;33280;52.152;21.052;2023-05-07T14:21:35;2.10;;;1.33;;
47539;SDS011;33280;52.152;21.052;2023-05-07T14:24:01;1.80;;;1.30;;
47539;SDS011;33280;52.152;21.052;2023-05-07T14:26:28;2.27;;;1.33;;
47539;SDS011;33280;52.152;21.052;2023-05-07T14:28:55;1.40;;;1.20;;
47539;SDS011;33280;52.152;21.052;2023-05-07T14:31:24;2.37;;;1.27;;
47539;SDS011;33280;52.152;21.052;2023-05-07T14:33:51;2.73;;;1.40;;
47539;SDS011;33280;52.152;21.052;2023-05-07T14:36:19;1.67;;;1.30;;
47539;SDS011;33280;52.152;21.052;2023-05-07T14:38:48;2.57;;;1.30;;
47539;SDS011;33280;52.152;21.052;2023-05-07T14:41:15;2.40;;;1.40;;
47539;SDS011;33280;52.152;21.052;2023-05-07T14:43:42;2.67;;;1.30;;
47539;SDS011;33280;52.152;21.052;2023-05-07T14:46:16;1.40;;;1.30;;
47539;SDS011;33280;52.152;21.052;2023-05-07T14:48:45;2.30;;;1.50;;
47539;SDS011;33280;52.152;21.052;2023-05-07T14:51:12;1.87;;;1.27;;
47539;SDS011;33280;52.152;21.052;2023-05-07T14:53:40;2.00;;;1.10;;
47539;SDS011;33280;52.152;21.052;2023-05-07T14:56:08;2.07;;;1.30;;
47539;SDS011;33280;52.152;21.052;2023-05-07T14:58:35;1.93;;;1.20;;
47539;SDS011;33280;52.152;21.052;2023-05-07T15:01:02;3.10;;;1.30;;
47539;SDS011;33280;52.152;21.052;2023-05-07T15:03:29;1.50;;;1.10;;
47539;SDS011;33280;52.152;21.052;2023-05-07T15:05:56;2.50;;;1.30;;
47539;SDS011;33280;52.152;21.052;2023-05-07T15:08:24;2.43;;;1.30;;
47539;SDS011;33280;52.152;21.052;2023-05-07T15:10:50;3.90;;;1.40;;
47539;SDS011;33280;52.152;21.052;2023-05-07T15:13:17;2.27;;;1.50;;
47539;SDS011;33280;52.152;21.052;2023-05-07T15:15:45;2.03;;;1.53;;
47539;SDS011;33280;52.152;21.052;2023-05-07T15:18:12;2.00;;;1.30;;
47539;SDS011;33280;52.152;21.052;2023-05-07T15:20:40;2.27;;;1.20;;
47539;SDS011;33280;52.152;21.052;2023-05-07T15:23:08;2.40;;;1.20;;
47539;SDS011;33280;52.152;21.052;2023-05-07T15:25:40;2.47;;;1.30;;
47539;SDS011;33280;52.152;21.052;2023-05-07T15:28:07;1.40;;;1.20;;
47539;SDS011;33280;52.152;21.052;2023-05-07T15:30:34;3.77;;;1.50;;
47539;SDS011;33280;52.152;21.052;2023-05-07T15:33:01;3.77;;;1.40;;
47539;SDS011;33280;52.152;21.052;2023-05-07T15:35:29;2.00;;;1.40;;
47539;SDS011;33280;52.152;21.052;2023-05-07T15:37:56;3.43;;;1.50;;
47539;SDS011;33280;52.152;21.052;2023-05-07T15:40:23;2.67;;;1.40;;
47539;SDS011;33280;52.152;21.052;2023-05-07T15:42:52;5.03;;;1.80;;
47539;SDS011;33280;52.152;21.052;2023-05-07T15:45:22;2.55;;;1.52;;
47539;SDS011;33280;52.152;21.052;2023-05-07T15:47:50;2.63;;;1.50;;
47539;SDS011;33280;52.152;21.052;2023-05-07T15:50:17;3.10;;;1.60;;
47539;SDS011;33280;52.152;21.052;2023-05-07T15:52:44;5.47;;;1.50;;
47539;SDS011;33280;52.152;21.052;2023-05-07T15:55:12;3.72;;;1.60;;
47539;SDS011;33280;52.152;21.052;2023-05-07T15:57:40;2.93;;;1.33;;
47539;SDS011;33280;52.152;21.052;2023-05-07T16:00:07;3.93;;;1.57;;
47539;SDS011;33280;52.152;21.052;2023-05-07T16:02:36;4.17;;;1.47;;
47539;SDS011;33280;52.152;21.052;2023-05-07T16:05:04;2.53;;;1.50;;
47539;SDS011;33280;52.152;21.052;2023-05-07T16:07:34;4.67;;;1.70;;
47539;SDS011;33280;52.152;21.052;2023-05-07T16:10:02;2.10;;;1.47;;
47539;SDS011;33280;52.152;21.052;2023-05-07T16:12:30;1.63;;;1.50;;
47539;SDS011;33280;52.152;21.052;2023-05-07T16:14:58;2.37;;;1.50;;
47539;SDS011;33280;52.152;21.052;2023-05-07T16:17:25;2.33;;;1.50;;
47539;SDS011;33280;52.152;21.052;2023-05-07T16:19:52;2.27;;;1.50;;
47539;SDS011;33280;52.152;21.052;2023-05-07T16:22:19;4.13;;;1.70;;
47539;SDS011;33280;52.152;21.052;2023-05-07T16:24:46;1.93;;;1.47;;
47539;SDS011;33280;52.152;21.052;2023-05-07T16:27:12;2.13;;;1.70;;
47539;SDS011;33280;52.152;21.052;2023-05-07T16:29:39;3.00;;;1.70;;
47539;SDS011;33280;52.152;21.052;2023-05-07T16:32:07;3.40;;;1.77;;
47539;SDS011;33280;52.152;21.052;2023-05-07T16:34:34;2.40;;;1.37;;
47539;SDS011;33280;52.152;21.052;2023-05-07T16:37:02;2.27;;;1.73;;
47539;SDS011;33280;52.152;21.052;2023-05-07T16:39:29;5.33;;;1.80;;
47539;SDS011;33280;52.152;21.052;2023-05-07T16:41:56;2.13;;;1.83;;
47539;SDS011;33280;52.152;21.052;2023-05-07T16:44:23;2.47;;;1.70;;
47539;SDS011;33280;52.152;21.052;2023-05-07T16:46:50;3.27;;;1.70;;
47539;SDS011;33280;52.152;21.052;2023-05-07T16:49:18;4.17;;;2.60;;
47539;SDS011;33280;52.152;21.052;2023-05-07T16:51:45;3.63;;;1.67;;
47539;SDS011;33280;52.152;21.052;2023-05-07T16:54:12;3.03;;;1.73;;
47539;SDS011;33280;52.152;21.052;2023-05-07T16:56:39;2.77;;;1.73;;
47539;SDS011;33280;52.152;21.052;2023-05-07T16:59:07;4.00;;;1.83;;
47539;SDS011;33280;52.152;21.052;2023-05-07T17:01:35;3.30;;;1.70;;
47539;SDS011;33280;52.152;21.052;2023-05-07T17:04:02;2.80;;;1.83;;
47539;SDS011;33280;52.152;21.052;2023-05-07T17:06:29;3.37;;;1.77;;
47539;SDS011;33280;52.152;21.052;2023-05-07T17:12:13;3.03;;;1.60;;
47539;SDS011;33280;52.152;21.052;2023-05-07T17:14:40;2.60;;;1.90;;
47539;SDS011;33280;52.152;21.052;2023-05-07T17:17:08;2.50;;;1.73;;
47539;SDS011;33280;52.152;21.052;2023-05-07T17:19:47;5.40;;;2.10;;
47539;SDS011;33280;52.152;21.052;2023-05-07T17:22:14;2.80;;;1.90;;
47539;SDS011;33280;52.152;21.052;2023-05-07T17:24:41;3.83;;;2.00;;
47539;SDS011;33280;52.152;21.052;2023-05-07T17:27:08;3.13;;;2.00;;
47539;SDS011;33280;52.152;21.052;2023-05-07T17:29:35;2.33;;;1.80;;
47539;SDS011;33280;52.152;21.052;2023-05-07T17:32:01;2.87;;;1.93;;
47539;SDS011;33280;52.152;21.052;2023-05-07T17:34:30;3.50;;;1.87;;
47539;SDS011;33280;52.152;21.052;2023-05-07T17:36:57;2.53;;;1.90;;
47539;SDS011;33280;52.152;21.052;2023-05-07T17:39:24;2.83;;;2.10;;
47539;SDS011;33280;52.152;21.052;2023-05-07T17:41:51;3.10;;;2.00;;
47539;SDS011;33280;52.152;21.052;2023-05-07T17:44:18;3.20;;;2.20;;
47539;SDS011;33280;52.152;21.052;2023-05-07T17:46:46;4.70;;;2.03;;
47539;SDS011;33280;52.152;21.052;2023-05-07T17:49:13;5.77;;;2.33;;
47539;SDS011;33280;52.152;21.052;2023-05-07T17:51:41;3.33;;;2.00;;
47539;SDS011;33280;52.152;21.052;2023-05-07T17:54:23;6.13;;;2.30;;
47539;SDS011;33280;52.152;21.052;2023-05-07T17:57:01;3.30;;;2.10;;
47539;SDS011;33280;52.152;21.052;2023-05-07T17:59:28;4.80;;;2.27;;
47539;SDS011;33280;52.152;21.052;2023-05-07T18:01:55;4.33;;;2.23;;
47539;SDS011;33280;52.152;21.052;2023-05-07T18:04:22;4.50;;;2.53;;
47539;SDS011;33280;52.152;21.052;2023-05-07T18:06:51;3.67;;;2.33;;
47539;SDS011;33280;52.152;21.052;2023-05-07T18:09:19;4.03;;;2.40;;
47539;SDS011;33280;52.152;21.052;2023-05-07T18:11:46;5.77;;;2.60;;
47539;SDS011;33280;52.152;21.052;2023-05-07T18:14:13;3.63;;;2.30;;
47539;SDS011;33280;52.152;21.052;2023-05-07T18:16:40;4.60;;;2.57;;
47539;SDS011;33280;52.152;21.052;2023-05-07T18:19:07;3.50;;;2.30;;
47539;SDS011;33280;52.152;21.052;2023-05-07T18:21:34;3.77;;;2.80;;
47539;SDS011;33280;52.152;21.052;2023-05-07T18:24:01;4.27;;;2.80;;
47539;SDS011;33280;52.152;21.052;2023-05-07T18:26:28;6.50;;;2.93;;
47539;SDS011;33280;52.152;21.052;2023-05-07T18:28:54;5.70;;;2.70;;
47539;SDS011;33280;52.152;21.052;2023-05-07T18:31:21;3.83;;;2.63;;
47539;SDS011;33280;52.152;21.052;2023-05-07T18:33:51;4.07;;;2.63;;
47539;SDS011;33280;52.152;21.052;2023-05-07T18:36:20;9.33;;;2.73;;
47539;SDS011;33280;52.152;21.052;2023-05-07T18:38:50;5.33;;;2.50;;
47539;SDS011;33280;52.152;21.052;2023-05-07T18:41:17;3.67;;;2.50;;
47539;SDS011;33280;52.152;21.052;2023-05-07T18:43:44;5.83;;;2.60;;
47539;SDS011;33280;52.152;21.052;2023-05-07T18:46:11;6.33;;;2.73;;
47539;SDS011;33280;52.152;21.052;2023-05-07T18:48:38;4.77;;;2.90;;
47539;SDS011;33280;52.152;21.052;2023-05-07T18:51:05;5.93;;;2.80;;
47539;SDS011;33280;52.152;21.052;2023-05-07T18:53:38;5.20;;;3.00;;
47539;SDS011;33280;52.152;21.052;2023-05-07T18:56:06;4.23;;;2.87;;
47539;SDS011;33280;52.152;21.052;2023-05-07T18:58:34;4.43;;;2.90;;
47539;SDS011;33280;52.152;21.052;2023-05-07T19:01:01;5.37;;;3.10;;
47539;SDS011;33280;52.152;21.052;2023-05-07T19:03:33;6.10;;;3.03;;
47539;SDS011;33280;52.152;21.052;2023-05-07T19:06:03;4.80;;;3.20;;
47539;SDS011;33280;52.152;21.052;2023-05-07T19:08:33;8.60;;;3.40;;
47539;SDS011;33280;52.152;21.052;2023-05-07T19:11:01;4.27;;;2.83;;
47539;SDS011;33280;52.152;21.052;2023-05-07T19:13:28;5.40;;;3.60;;
47539;SDS011;33280;52.152;21.052;2023-05-07T19:15:56;5.33;;;3.10;;
47539;SDS011;33280;52.152;21.052;2023-05-07T19:18:23;4.27;;;2.77;;
47539;SDS011;33280;52.152;21.052;2023-05-07T19:20:50;6.00;;;3.47;;
47539;SDS011;33280;52.152;21.052;2023-05-07T19:23:20;4.57;;;2.70;;
47539;SDS011;33280;52.152;21.052;2023-05-07T19:25:47;7.37;;;3.17;;
47539;SDS011;33280;52.152;21.052;2023-05-07T19:28:14;6.73;;;3.00;;
47539;SDS011;33280;52.152;21.052;2023-05-07T19:30:43;4.53;;;3.10;;
47539;SDS011;33280;52.152;21.052;2023-05-07T19:33:10;7.93;;;3.10;;
47539;SDS011;33280;52.152;21.052;2023-05-07T19:35:37;5.27;;;3.00;;
47539;SDS011;33280;52.152;21.052;2023-05-07T19:38:04;4.10;;;2.97;;
47539;SDS011;33280;52.152;21.052;2023-05-07T19:40:31;6.13;;;3.13;;
47539;SDS011;33280;52.152;21.052;2023-05-07T19:42:58;5.90;;;3.10;;
47539;SDS011;33280;52.152;21.052;2023-05-07T19:45:25;5.73;;;3.07;;
47539;SDS011;33280;52.152;21.052;2023-05-07T19:47:52;6.30;;;3.00;;
47539;SDS011;33280;52.152;21.052;2023-05-07T19:50:19;4.60;;;2.90;;
47539;SDS011;33280;52.152;21.052;2023-05-07T19:52:47;5.73;;;3.00;;
47539;SDS011;33280;52.152;21.052;2023-05-07T19:55:14;16.27;;;3.97;;
47539;SDS011;33280;52.152;21.052;2023-05-07T19:57:43;6.20;;;3.10;;
47539;SDS011;33280;52.152;21.052;2023-05-07T20:00:15;7.20;;;3.13;;
47539;SDS011;33280;52.152;21.052;2023-05-07T20:02:42;5.33;;;3.27;;
47539;SDS011;33280;52.152;21.052;2023-05-07T20:05:09;4.53;;;2.87;;
47539;SDS011;33280;52.152;21.052;2023-05-07T20:07:39;10.03;;;3.30;;
47539;SDS011;33280;52.152;21.052;2023-05-07T20:10:06;5.27;;;3.47;;
47539;SDS011;33280;52.152;21.052;2023-05-07T20:12:33;5.87;;;3.40;;
47539;SDS011;33280;52.152;21.052;2023-05-07T20:15:00;5.60;;;3.20;;
47539;SDS011;33280;52.152;21.052;2023-05-07T20:17:27;5.90;;;3.13;;
47539;SDS011;33280;52.152;21.052;2023-05-07T20:19:54;5.03;;;3.17;;
47539;SDS011;33280;52.152;21.052;2023-05-07T20:22:21;5.50;;;3.40;;
47539;SDS011;33280;52.152;21.052;2023-05-07T20:24:49;6.40;;;3.57;;
47539;SDS011;33280;52.152;21.052;2023-05-07T20:27:16;6.47;;;3.23;;
47539;SDS011;33280;52.152;21.052;2023-05-07T20:29:47;5.60;;;3.30;;
47539;SDS011;33280;52.152;21.052;2023-05-07T20:32:14;4.80;;;3.20;;
47539;SDS011;33280;52.152;21.052;2023-05-07T20:34:41;5.97;;;3.50;;
47539;SDS011;33280;52.152;21.052;2023-05-07T20:37:10;5.50;;;3.43;;
47539;SDS011;33280;52.152;21.052;2023-05-07T20:39:40;5.37;;;3.53;;
47539;SDS011;33280;52.152;21.052;2023-05-07T20:42:07;8.10;;;3.53;;
47539;SDS011;33280;52.152;21.052;2023-05-07T20:44:35;8.33;;;3.17;;
47539;SDS011;33280;52.152;21.052;2023-05-07T20:47:02;7.40;;;3.70;;
47539;SDS011;33280;52.152;21.052;2023-05-07T20:49:29;6.20;;;3.90;;
47539;SDS011;33280;52.152;21.052;2023-05-07T20:51:56;8.17;;;4.00;;
47539;SDS011;33280;52.152;21.052;2023-05-07T20:54:23;7.50;;;3.60;;
47539;SDS011;33280;52.152;21.052;2023-05-07T20:56:53;5.90;;;3.90;;
47539;SDS011;33280;52.152;21.052;2023-05-07T20:59:22;6.37;;;3.77;;
47539;SDS011;33280;52.152;21.052;2023-05-07T21:01:50;5.90;;;3.90;;
47539;SDS011;33280;52.152;21.052;2023-05-07T21:04:18;5.93;;;3.90;;
47539;SDS011;33280;52.152;21.052;2023-05-07T21:06:48;7.07;;;3.90;;
47539;SDS011;33280;52.152;21.052;2023-05-07T21:09:16;7.93;;;4.10;;
47539;SDS011;33280;52.152;21.052;2023-05-07T21:11:43;6.90;;;4.27;;
47539;SDS011;33280;52.152;21.052;2023-05-07T21:14:10;8.07;;;4.70;;
47539;SDS011;33280;52.152;21.052;2023-05-07T21:16:36;7.90;;;4.53;;
47539;SDS011;33280;52.152;21.052;2023-05-07T21:19:04;8.47;;;4.70;;
47539;SDS011;33280;52.152;21.052;2023-05-07T21:21:31;8.27;;;4.60;;
47539;SDS011;33280;52.152;21.052;2023-05-07T21:23:58;6.93;;;4.60;;
47539;SDS011;33280;52.152;21.052;2023-05-07T21:26:31;8.90;;;5.20;;
47539;SDS011;33280;52.152;21.052;2023-05-07T21:28:58;9.50;;;5.40;;
47539;SDS011;33280;52.152;21.052;2023-05-07T21:31:25;12.80;;;5.73;;
47539;SDS011;33280;52.152;21.052;2023-05-07T21:33:52;10.90;;;5.80;;
47539;SDS011;33280;52.152;21.052;2023-05-07T21:36:19;8.30;;;5.83;;
47539;SDS011;33280;52.152;21.052;2023-05-07T21:38:46;11.20;;;6.33;;
47539;SDS011;33280;52.152;21.052;2023-05-07T21:41:13;10.80;;;6.37;;
47539;SDS011;33280;52.152;21.052;2023-05-07T21:43:40;11.67;;;6.90;;
47539;SDS011;33280;52.152;21.052;2023-05-07T21:46:07;12.67;;;7.20;;
47539;SDS011;33280;52.152;21.052;2023-05-07T21:48:34;12.23;;;7.33;;
47539;SDS011;33280;52.152;21.052;2023-05-07T21:51:05;15.87;;;7.87;;
47539;SDS011;33280;52.152;21.052;2023-05-07T21:53:33;12.90;;;7.70;;
47539;SDS011;33280;52.152;21.052;2023-05-07T21:56:00;12.57;;;8.17;;
47539;SDS011;33280;52.152;21.052;2023-05-07T21:58:28;12.57;;;7.70;;
47539;SDS011;33280;52.152;21.052;2023-05-07T22:00:56;13.27;;;7.73;;
47539;SDS011;33280;52.152;21.052;2023-05-07T22:03:23;11.77;;;7.67;;
47539;SDS011;33280;52.152;21.052;2023-05-07T22:05:50;14.43;;;7.80;;
47539;SDS011;33280;52.152;21.052;2023-05-07T22:08:17;14.03;;;8.80;;
47539;SDS011;33280;52.152;21.052;2023-05-07T22:10:44;14.53;;;8.60;;
47539;SDS011;33280;52.152;21.052;2023-05-07T22:13:11;15.57;;;8.90;;
47539;SDS011;33280;52.152;21.052;2023-05-07T22:15:38;13.60;;;8.40;;
47539;SDS011;33280;52.152;21.052;2023-05-07T22:18:21;15.50;;;8.73;;
47539;SDS011;33280;52.152;21.052;2023-05-07T22:20:49;15.40;;;9.43;;
47539;SDS011;33280;52.152;21.052;2023-05-07T22:23:17;14.17;;;8.67;;
47539;SDS011;33280;52.152;21.052;2023-05-07T22:25:44;14.90;;;8.90;;
47539;SDS011;33280;52.152;21.052;2023-05-07T22:28:11;19.07;;;9.37;;
47539;SDS011;33280;52.152;21.052;2023-05-07T22:30:38;16.90;;;9.13;;
47539;SDS011;33280;52.152;21.052;2023-05-07T22:33:05;16.77;;;10.03;;
47539;SDS011;33280;52.152;21.052;2023-05-07T22:35:32;17.53;;;9.47;;
47539;SDS011;33280;52.152;21.052;2023-05-07T22:37:59;16.57;;;10.03;;
47539;SDS011;33280;52.152;21.052;2023-05-07T22:40:26;20.17;;;10.83;;
47539;SDS011;33280;52.152;21.052;2023-05-07T22:42:53;19.33;;;10.97;;
47539;SDS011;33280;52.152;21.052;2023-05-07T22:45:20;17.33;;;10.73;;
47539;SDS011;33280;52.152;21.052;2023-05-07T22:47:47;18.77;;;11.10;;
47539;SDS011;33280;52.152;21.052;2023-05-07T22:50:14;18.27;;;10.70;;
47539;SDS011;33280;52.152;21.052;2023-05-07T22:52:41;18.60;;;10.73;;
47539;SDS011;33280;52.152;21.052;2023-05-07T22:55:08;19.93;;;11.63;;
47539;SDS011;33280;52.152;21.052;2023-05-07T22:57:35;20.50;;;11.53;;
47539;SDS011;33280;52.152;21.052;2023-05-07T23:00:02;19.63;;;11.73;;
47539;SDS011;33280;52.152;21.052;2023-05-07T23:02:31;19.60;;;11.73;;
47539;SDS011;33280;52.152;21.052;2023-05-07T23:04:59;18.20;;;11.07;;
47539;SDS011;33280;52.152;21.052;2023-05-07T23:07:26;18.33;;;10.77;;
47539;SDS011;33280;52.152;21.052;2023-05-07T23:09:53;20.77;;;10.97;;
47539;SDS011;33280;52.152;21.052;2023-05-07T23:12:20;21.20;;;11.67;;
47539;SDS011;33280;52.152;21.052;2023-05-07T23:14:47;17.57;;;10.73;;
47539;SDS011;33280;52.152;21.052;2023-05-07T23:17:14;20.37;;;10.97;;
47539;SDS011;33280;52.152;21.052;2023-05-07T23:19:41;19.53;;;11.10;;
47539;SDS011;33280;52.152;21.052;2023-05-07T23:22:08;21.17;;;11.60;;
47539;SDS011;33280;52.152;21.052;2023-05-07T23:24:35;18.00;;;11.37;;
47539;SDS011;33280;52.152;21.052;2023-05-07T23:27:03;17.13;;;10.73;;
47539;SDS011;33280;52.152;21.052;2023-05-07T23:29:30;18.20;;;10.80;;
47539;SDS011;33280;52.152;21.052;2023-05-07T23:31:58;19.37;;;11.43;;
47539;SDS011;33280;52.152;21.052;2023-05-07T23:34:25;19.70;;;11.40;;
47539;SDS011;33280;52.152;21.052;2023-05-07T23:36:52;18.53;;;11.20;;
47539;SDS011;33280;52.152;21.052;2023-05-07T23:39:19;19.47;;;11.33;;
47539;SDS011;33280;52.152;21.052;2023-05-07T23:41:46;21.10;;;11.50;;
47539;SDS011;33280;52.152;21.052;2023-05-07T23:44:13;21.77;;;11.07;;
47539;SDS011;33280;52.152;21.052;2023-05-07T23:46:42;20.30;;;11.07;;
47539;SDS011;33280;52.152;21.052;2023-05-07T23:49:10;18.20;;;10.93;;
47539;SDS011;33280;52.152;21.052;2023-05-07T23:51:37;19.53;;;11.70;;
47539;SDS011;33280;52.152;21.052;2023-05-07T23:54:04;21.20;;;12.37;;
47539;SDS011;33280;52.152;21.052;2023-05-07T23:56:31;19.37;;;12.47;;
47539;SDS011;33280;52.152;21.052;2023-05-07T23:58:59;22.50;;;12.70;;
